(°C)
10°
11°
(°C)
-5°
-4°
-3°
ENE
ENE
ENE
ENE
ENE
ENE
NE
(km/h)
9-11
9-11
10-12
12-15
14-17
15-18
14-17
(mm)
0
0
0
0
0
0
0
(%)
0
0
0
0
0
0
0

Elevazione del sole

/ -12.2°
sun-icon
UV 4
06:14
19:43
Luna crescente (37°)
07:57
23:11

METAR per 44.1°N 15.3°E (LDZD)

Ora Condizioni Temperatura/
Punto di rugiada
Vento Visibilità Tempo Nuvole Pressione Cambiamento Grezzo
VFR 0°C / -2°C 130º 1kt >10km - Clouds and Visibility OK 1021 - LDZD 150230Z 13001KT CAVOK M00/M02 Q1021
VFR -1°C / -3°C variable 0kt >10km - Clouds and Visibility OK 1022 - LDZD 150200Z 00000KT CAVOK M01/M03 Q1022
VFR 0°C / -3°C variable 1kt >10km - Clouds and Visibility OK 1022 - LDZD 150130Z VRB01KT CAVOK 00/M03 Q1022
VFR 2°C / -3°C 80º 4kt >10km - Clouds and Visibility OK 1022 - LDZD 150100Z 08004KT CAVOK 02/M03 Q1022
VFR 4°C / -3°C 100º 5kt >10km - Clouds and Visibility OK 1022 - LDZD 150030Z 10005KT CAVOK 04/M03 Q1022
VFR 4°C / -2°C 90º variable 030º to 150º 5kt >10km - Clouds and Visibility OK 1022 - LDZD 150000Z 09005KT 030V150 CAVOK 04/M02 Q1022
VFR 3°C / -2°C 100º variable 060º to 120º 4kt >10km - Clouds and Visibility OK 1022 - LDZD 142330Z 10004KT 060V120 CAVOK 03/M02 Q1022
VFR 4°C / -2°C 110º variable 080º to 140º 5kt >10km - Clouds and Visibility OK 1022 - LDZD 142300Z 11005KT 080V140 CAVOK 04/M02 Q1022
VFR 5°C / -2°C 90º 5kt >10km - Clouds and Visibility OK 1022 - LDZD 142230Z 09005KT CAVOK 05/M02 Q1022
VFR 5°C / -2°C 90º 6kt >10km - Clouds and Visibility OK 1022 - LDZD 142200Z 09006KT CAVOK 05/M02 Q1022
VFR 3°C / -1°C 80º 6kt >10km - Clouds and Visibility OK 1022 - LDZD 142130Z 08006KT CAVOK 03/M01 Q1022
VFR 5°C / -1°C 100º 5kt >10km - Clouds and Visibility OK 1022 - LDZD 142100Z 10005KT CAVOK 05/M01 Q1022
VFR 4°C / -1°C variable 0kt >10km - Clouds and Visibility OK 1022 - LDZD 142030Z 00000KT CAVOK 04/M01 Q1022
VFR 4°C / -2°C variable 0kt >10km - Clouds and Visibility OK 1022 - LDZD 142000Z 00000KT CAVOK 04/M02 Q1022
VFR 5°C / -1°C variable 0kt >10km - Clouds and Visibility OK 1022 - LDZD 141930Z 00000KT CAVOK 05/M01 Q1022
VFR 6°C / -2°C 60º 5kt >10km - Few Clouds 4000ft 1022 - LDZD 141900Z 06005KT 9999 FEW040 06/M02 Q1022
VFR 7°C / -2°C 60º variable 020º to 090º 4kt >10km - Few Clouds 4000ft 1022 - LDZD 141830Z 06004KT 020V090 9999 FEW040 07/M02 Q1022
VFR 8°C / -2°C 50º 5kt >10km - Few Clouds 4000ft 1021 No Significant change LDZD 141800Z 05005KT 9999 FEW040 08/M02 Q1021 NOSIG
VFR 9°C / -2°C 40º 3kt >10km - Few Clouds 4000ft 1021 No Significant change LDZD 141730Z 04003KT 9999 FEW040 09/M02 Q1021 NOSIG
VFR 10°C / -3°C 30º variable 350º to 080º 5kt >10km - Few Clouds 4000ft 1021 No Significant change LDZD 141700Z 03005KT 350V080 9999 FEW040 10/M03 Q1021 NOSIG
VFR 11°C / -3°C 350º 7kt >10km - Few Clouds 4000ft 1021 No Significant change LDZD 141630Z 35007KT 9999 FEW040 11/M03 Q1021 NOSIG
VFR 12°C / -3°C 60º variable 020º to 110º 6kt >10km - Few Clouds 4000ft 1021 No Significant change LDZD 141600Z 06006KT 020V110 9999 FEW040 12/M03 Q1021 NOSIG
VFR 11°C / -4°C 50º variable 010º to 100º 7kt >10km - Few Clouds 4000ft 1021 No Significant change LDZD 141530Z 05007KT 010V100 9999 FEW040 SCT065 11/M04 Q1021 NOSIG
VFR 12°C / -5°C 320º variable 250º to 020º 8kt >10km - Few Clouds 4000ft 1021 Temporary: Wind 60º 8kt. LDZD 141500Z 32008KT 250V020 9999 FEW040 SCT065 12/M05 Q1021 TEMPO 06008KT

VFR

0°C / -2°C

[Più]
Vento 130º 1kt
Visibilità >10km
Tempo -
Nuvole Clouds and Visibility OK
Pressione 1021
Cambiamento -
Grezzo LDZD 150230Z 13001KT CAVOK M00/M02 Q1021

VFR

-1°C / -3°C

[Più]
Vento variable 0kt
Visibilità >10km
Tempo -
Nuvole Clouds and Visibility OK
Pressione 1022
Cambiamento -
Grezzo LDZD 150200Z 00000KT CAVOK M01/M03 Q1022

VFR

0°C / -3°C

[Più]
Vento variable 1kt
Visibilità >10km
Tempo -
Nuvole Clouds and Visibility OK
Pressione 1022
Cambiamento -
Grezzo LDZD 150130Z VRB01KT CAVOK 00/M03 Q1022

VFR

2°C / -3°C

[Più]
Vento 80º 4kt
Visibilità >10km
Tempo -
Nuvole Clouds and Visibility OK
Pressione 1022
Cambiamento -
Grezzo LDZD 150100Z 08004KT CAVOK 02/M03 Q1022

VFR

4°C / -3°C

[Più]
Vento 100º 5kt
Visibilità >10km
Tempo -
Nuvole Clouds and Visibility OK
Pressione 1022
Cambiamento -
Grezzo LDZD 150030Z 10005KT CAVOK 04/M03 Q1022

VFR

4°C / -2°C

[Più]
Vento 90º variable 030º to 150º 5kt
Visibilità >10km
Tempo -
Nuvole Clouds and Visibility OK
Pressione 1022
Cambiamento -
Grezzo LDZD 150000Z 09005KT 030V150 CAVOK 04/M02 Q1022

VFR

3°C / -2°C

[Più]
Vento 100º variable 060º to 120º 4kt
Visibilità >10km
Tempo -
Nuvole Clouds and Visibility OK
Pressione 1022
Cambiamento -
Grezzo LDZD 142330Z 10004KT 060V120 CAVOK 03/M02 Q1022

VFR

4°C / -2°C

[Più]
Vento 110º variable 080º to 140º 5kt
Visibilità >10km
Tempo -
Nuvole Clouds and Visibility OK
Pressione 1022
Cambiamento -
Grezzo LDZD 142300Z 11005KT 080V140 CAVOK 04/M02 Q1022

VFR

5°C / -2°C

[Più]
Vento 90º 5kt
Visibilità >10km
Tempo -
Nuvole Clouds and Visibility OK
Pressione 1022
Cambiamento -
Grezzo LDZD 142230Z 09005KT CAVOK 05/M02 Q1022

VFR

5°C / -2°C

[Più]
Vento 90º 6kt
Visibilità >10km
Tempo -
Nuvole Clouds and Visibility OK
Pressione 1022
Cambiamento -
Grezzo LDZD 142200Z 09006KT CAVOK 05/M02 Q1022

VFR

3°C / -1°C

[Più]
Vento 80º 6kt
Visibilità >10km
Tempo -
Nuvole Clouds and Visibility OK
Pressione 1022
Cambiamento -
Grezzo LDZD 142130Z 08006KT CAVOK 03/M01 Q1022

VFR

5°C / -1°C

[Più]
Vento 100º 5kt
Visibilità >10km
Tempo -
Nuvole Clouds and Visibility OK
Pressione 1022
Cambiamento -
Grezzo LDZD 142100Z 10005KT CAVOK 05/M01 Q1022

VFR

4°C / -1°C

[Più]
Vento variable 0kt
Visibilità >10km
Tempo -
Nuvole Clouds and Visibility OK
Pressione 1022
Cambiamento -
Grezzo LDZD 142030Z 00000KT CAVOK 04/M01 Q1022

VFR

4°C / -2°C

[Più]
Vento variable 0kt
Visibilità >10km
Tempo -
Nuvole Clouds and Visibility OK
Pressione 1022
Cambiamento -
Grezzo LDZD 142000Z 00000KT CAVOK 04/M02 Q1022

VFR

5°C / -1°C

[Più]
Vento variable 0kt
Visibilità >10km
Tempo -
Nuvole Clouds and Visibility OK
Pressione 1022
Cambiamento -
Grezzo LDZD 141930Z 00000KT CAVOK 05/M01 Q1022

VFR

6°C / -2°C

[Più]
Vento 60º 5kt
Visibilità >10km
Tempo -
Nuvole Few Clouds 4000ft
Pressione 1022
Cambiamento -
Grezzo LDZD 141900Z 06005KT 9999 FEW040 06/M02 Q1022

VFR

7°C / -2°C

[Più]
Vento 60º variable 020º to 090º 4kt
Visibilità >10km
Tempo -
Nuvole Few Clouds 4000ft
Pressione 1022
Cambiamento -
Grezzo LDZD 141830Z 06004KT 020V090 9999 FEW040 07/M02 Q1022

VFR

8°C / -2°C

[Più]
Vento 50º 5kt
Visibilità >10km
Tempo -
Nuvole Few Clouds 4000ft
Pressione 1021
Cambiamento No Significant change
Grezzo LDZD 141800Z 05005KT 9999 FEW040 08/M02 Q1021 NOSIG

VFR

9°C / -2°C

[Più]
Vento 40º 3kt
Visibilità >10km
Tempo -
Nuvole Few Clouds 4000ft
Pressione 1021
Cambiamento No Significant change
Grezzo LDZD 141730Z 04003KT 9999 FEW040 09/M02 Q1021 NOSIG

VFR

10°C / -3°C

[Più]
Vento 30º variable 350º to 080º 5kt
Visibilità >10km
Tempo -
Nuvole Few Clouds 4000ft
Pressione 1021
Cambiamento No Significant change
Grezzo LDZD 141700Z 03005KT 350V080 9999 FEW040 10/M03 Q1021 NOSIG

VFR

11°C / -3°C

[Più]
Vento 350º 7kt
Visibilità >10km
Tempo -
Nuvole Few Clouds 4000ft
Pressione 1021
Cambiamento No Significant change
Grezzo LDZD 141630Z 35007KT 9999 FEW040 11/M03 Q1021 NOSIG

VFR

12°C / -3°C

[Più]
Vento 60º variable 020º to 110º 6kt
Visibilità >10km
Tempo -
Nuvole Few Clouds 4000ft
Pressione 1021
Cambiamento No Significant change
Grezzo LDZD 141600Z 06006KT 020V110 9999 FEW040 12/M03 Q1021 NOSIG

VFR

11°C / -4°C

[Più]
Vento 50º variable 010º to 100º 7kt
Visibilità >10km
Tempo -
Nuvole Few Clouds 4000ft
Pressione 1021
Cambiamento No Significant change
Grezzo LDZD 141530Z 05007KT 010V100 9999 FEW040 SCT065 11/M04 Q1021 NOSIG

VFR

12°C / -5°C

[Più]
Vento 320º variable 250º to 020º 8kt
Visibilità >10km
Tempo -
Nuvole Few Clouds 4000ft
Pressione 1021
Cambiamento Temporary: Wind 60º 8kt.
Grezzo LDZD 141500Z 32008KT 250V020 9999 FEW040 SCT065 12/M05 Q1021 TEMPO 06008KT

TAF per 44.1°N 15.3°E (LDZD)

From till


Maximum Temperature 14ºC on . Minimum Temperature 1ºC on .
From till Wind 60º 6kt. Visibility 10km or more. Nil Significant Cloud.
With 40% probability, Temporarly from till Wind 60º 12kt.
With 40% probability, Temporarly from till Wind 330º 8kt.

Grezzo: TAF LDZD 142325Z 1500/1600 06006KT CAVOK TX14/1513Z TN01/1503Z PROB40 TEMPO 1506/1509 06012KT PROB40 TEMPO 1509/1516 33008KT

Tempo in atto per 44.1°N 15.3°E: immagine satellitare e pioggia

  • Precipitazioni:
  • <1 mm
  • 1-2 mm
  • 2-5 mm
  • >5 mm

Il segnaposto è situato a 44.1°N 15.3°E. [Più]

L'immagine satellitare in tempo reale combina la luce visibile durante il giorno con la radiazione infrarossa durante la notte. Di notte l'immagine non è scura poiché i raggi infrarossi possono rilevare differenze di temperatura. Purtroppo, le nuvole basse e la nebbia sono difficili da distinguere dalla temperatura del suolo e possono pertanto essere quasi invisibili durante la notte. Le immagini satellitari Meteosat per l'Europa vengono aggiornate in tempo reale ogni 5 minuti. Le immagini GOES-16 / GOES-17 (Nord e Sud America) e Himawari (Asia) vengono aggiornate ogni 10 minuti.

Le precipitazioni sono stimate da radar e satellite. Una precipitazione notturna stimata da satellite è meno accurata di una diurna. Le croci arancioni identificano i fulmini caduti (in Europa).

Copyright 2021 EUMETSAT / meteoblue. Fulminazioni fornite da nowcast.